sensor_id;sensor_type;location;lat;lon;timestamp;P1;P2;P0
48893;PMS5003;34710;35.798;139.446;2023-04-15T00:01:40;9;8;
48893;PMS5003;34710;35.798;139.446;2023-04-15T00:04:05;6;6;
48893;PMS5003;34710;35.798;139.446;2023-04-15T00:06:30;12;9;
48893;PMS5003;34710;35.798;139.446;2023-04-15T00:08:55;12;9;
48893;PMS5003;34710;35.798;139.446;2023-04-15T00:11:20;11;8;
48893;PMS5003;34710;35.798;139.446;2023-04-15T00:13:46;14;9;
48893;PMS5003;34710;35.798;139.446;2023-04-15T00:16:11;10;9;
48893;PMS5003;34710;35.798;139.446;2023-04-15T00:18:36;10;9;
48893;PMS5003;34710;35.798;139.446;2023-04-15T00:21:01;11;9;
48893;PMS5003;34710;35.798;139.446;2023-04-15T00:23:27;12;8;
48893;PMS5003;34710;35.798;139.446;2023-04-15T00:25:52;12;10;
48893;PMS5003;34710;35.798;139.446;2023-04-15T00:28:18;16;12;
48893;PMS5003;34710;35.798;139.446;2023-04-15T00:30:43;13;9;
48893;PMS5003;34710;35.798;139.446;2023-04-15T00:33:08;10;9;
48893;PMS5003;34710;35.798;139.446;2023-04-15T00:35:34;10;9;
48893;PMS5003;34710;35.798;139.446;2023-04-15T00:37:59;16;11;
48893;PMS5003;34710;35.798;139.446;2023-04-15T00:40:24;10;9;
48893;PMS5003;34710;35.798;139.446;2023-04-15T00:42:50;14;12;
48893;PMS5003;34710;35.798;139.446;2023-04-15T00:45:15;15;10;
48893;PMS5003;34710;35.798;139.446;2023-04-15T00:47:41;15;12;
48893;PMS5003;34710;35.798;139.446;2023-04-15T00:50:07;18;10;
48893;PMS5003;34710;35.798;139.446;2023-04-15T00:52:32;10;9;
48893;PMS5003;34710;35.798;139.446;2023-04-15T00:54:57;9;9;
48893;PMS5003;34710;35.798;139.446;2023-04-15T00:57:23;12;9;
48893;PMS5003;34710;35.798;139.446;2023-04-15T00:59:49;22;13;
48893;PMS5003;34710;35.798;139.446;2023-04-15T01:02:14;11;7;
48893;PMS5003;34710;35.798;139.446;2023-04-15T01:04:39;8;7;
48893;PMS5003;34710;35.798;139.446;2023-04-15T01:07:04;11;7;
48893;PMS5003;34710;35.798;139.446;2023-04-15T01:09:29;10;6;
48893;PMS5003;34710;35.798;139.446;2023-04-15T01:11:55;7;6;
48893;PMS5003;34710;35.798;139.446;2023-04-15T01:14:20;7;7;
48893;PMS5003;34710;35.798;139.446;2023-04-15T01:16:45;11;7;
48893;PMS5003;34710;35.798;139.446;2023-04-15T01:19:10;7;5;
48893;PMS5003;34710;35.798;139.446;2023-04-15T01:21:36;7;5;
48893;PMS5003;34710;35.798;139.446;2023-04-15T01:24:01;8;6;
48893;PMS5003;34710;35.798;139.446;2023-04-15T01:26:26;9;7;
48893;PMS5003;34710;35.798;139.446;2023-04-15T01:28:52;8;6;
48893;PMS5003;34710;35.798;139.446;2023-04-15T01:31:17;8;7;
48893;PMS5003;34710;35.798;139.446;2023-04-15T01:33:42;13;10;
48893;PMS5003;34710;35.798;139.446;2023-04-15T01:36:08;8;7;
48893;PMS5003;34710;35.798;139.446;2023-04-15T01:38:33;11;9;
48893;PMS5003;34710;35.798;139.446;2023-04-15T01:40:58;10;9;
48893;PMS5003;34710;35.798;139.446;2023-04-15T01:43:23;10;8;
48893;PMS5003;34710;35.798;139.446;2023-04-15T01:45:48;11;8;
48893;PMS5003;34710;35.798;139.446;2023-04-15T01:48:14;7;7;
48893;PMS5003;34710;35.798;139.446;2023-04-15T01:50:39;8;8;
48893;PMS5003;34710;35.798;139.446;2023-04-15T01:53:05;22;7;
48893;PMS5003;34710;35.798;139.446;2023-04-15T01:55:30;11;8;
48893;PMS5003;34710;35.798;139.446;2023-04-15T01:57:55;8;6;
48893;PMS5003;34710;35.798;139.446;2023-04-15T02:00:20;8;8;
48893;PMS5003;34710;35.798;139.446;2023-04-15T02:02:45;14;12;
48893;PMS5003;34710;35.798;139.446;2023-04-15T02:05:10;12;8;
48893;PMS5003;34710;35.798;139.446;2023-04-15T02:07:36;13;9;
48893;PMS5003;34710;35.798;139.446;2023-04-15T02:10:01;13;8;
48893;PMS5003;34710;35.798;139.446;2023-04-15T02:12:26;11;7;
48893;PMS5003;34710;35.798;139.446;2023-04-15T02:14:52;6;6;
48893;PMS5003;34710;35.798;139.446;2023-04-15T02:17:17;17;8;
48893;PMS5003;34710;35.798;139.446;2023-04-15T02:19:43;12;7;
48893;PMS5003;34710;35.798;139.446;2023-04-15T02:22:08;12;8;
48893;PMS5003;34710;35.798;139.446;2023-04-15T02:24:33;10;10;
48893;PMS5003;34710;35.798;139.446;2023-04-15T02:26:59;8;7;
48893;PMS5003;34710;35.798;139.446;2023-04-15T02:29:23;7;5;
48893;PMS5003;34710;35.798;139.446;2023-04-15T02:31:48;10;8;
48893;PMS5003;34710;35.798;139.446;2023-04-15T02:34:14;13;9;
48893;PMS5003;34710;35.798;139.446;2023-04-15T02:36:39;15;9;
48893;PMS5003;34710;35.798;139.446;2023-04-15T02:39:04;9;8;
48893;PMS5003;34710;35.798;139.446;2023-04-15T02:41:29;7;7;
48893;PMS5003;34710;35.798;139.446;2023-04-15T02:43:54;16;9;
48893;PMS5003;34710;35.798;139.446;2023-04-15T02:46:20;11;10;
48893;PMS5003;34710;35.798;139.446;2023-04-15T02:48:45;9;8;
48893;PMS5003;34710;35.798;139.446;2023-04-15T02:51:13;15;8;
48893;PMS5003;34710;35.798;139.446;2023-04-15T02:53:36;9;7;
48893;PMS5003;34710;35.798;139.446;2023-04-15T02:56:01;12;8;
48893;PMS5003;34710;35.798;139.446;2023-04-15T02:58:27;16;10;
48893;PMS5003;34710;35.798;139.446;2023-04-15T03:00:52;11;8;
48893;PMS5003;34710;35.798;139.446;2023-04-15T03:03:18;11;10;
48893;PMS5003;34710;35.798;139.446;2023-04-15T03:05:44;13;8;
48893;PMS5003;34710;35.798;139.446;2023-04-15T03:08:09;28;12;
48893;PMS5003;34710;35.798;139.446;2023-04-15T03:10:34;11;7;
48893;PMS5003;34710;35.798;139.446;2023-04-15T03:13:00;5;5;
48893;PMS5003;34710;35.798;139.446;2023-04-15T03:15:26;10;8;
48893;PMS5003;34710;35.798;139.446;2023-04-15T03:17:51;13;9;
48893;PMS5003;34710;35.798;139.446;2023-04-15T03:20:16;10;9;
48893;PMS5003;34710;35.798;139.446;2023-04-15T03:22:41;9;9;
48893;PMS5003;34710;35.798;139.446;2023-04-15T03:25:07;12;7;
48893;PMS5003;34710;35.798;139.446;2023-04-15T03:27:32;8;7;
48893;PMS5003;34710;35.798;139.446;2023-04-15T03:29:57;7;6;
48893;PMS5003;34710;35.798;139.446;2023-04-15T03:32:23;15;9;
48893;PMS5003;34710;35.798;139.446;2023-04-15T03:34:48;13;7;
48893;PMS5003;34710;35.798;139.446;2023-04-15T03:37:13;9;6;
48893;PMS5003;34710;35.798;139.446;2023-04-15T03:39:38;7;6;
48893;PMS5003;34710;35.798;139.446;2023-04-15T03:42:03;14;8;
48893;PMS5003;34710;35.798;139.446;2023-04-15T03:44:30;10;7;
48893;PMS5003;34710;35.798;139.446;2023-04-15T03:46:55;10;8;
48893;PMS5003;34710;35.798;139.446;2023-04-15T03:49:19;11;7;
48893;PMS5003;34710;35.798;139.446;2023-04-15T03:51:45;6;5;
48893;PMS5003;34710;35.798;139.446;2023-04-15T03:54:10;9;8;
48893;PMS5003;34710;35.798;139.446;2023-04-15T03:56:35;12;7;
48893;PMS5003;34710;35.798;139.446;2023-04-15T03:59:00;11;6;
48893;PMS5003;34710;35.798;139.446;2023-04-15T04:01:25;7;6;
48893;PMS5003;34710;35.798;139.446;2023-04-15T04:03:50;6;5;
48893;PMS5003;34710;35.798;139.446;2023-04-15T04:06:16;11;7;
48893;PMS5003;34710;35.798;139.446;2023-04-15T04:08:41;11;9;
48893;PMS5003;34710;35.798;139.446;2023-04-15T04:11:06;7;7;
48893;PMS5003;34710;35.798;139.446;2023-04-15T04:13:31;11;10;
48893;PMS5003;34710;35.798;139.446;2023-04-15T04:15:56;8;7;
48893;PMS5003;34710;35.798;139.446;2023-04-15T04:18:22;15;9;
48893;PMS5003;34710;35.798;139.446;2023-04-15T04:20:48;9;7;
48893;PMS5003;34710;35.798;139.446;2023-04-15T04:23:13;10;9;
48893;PMS5003;34710;35.798;139.446;2023-04-15T04:25:38;8;7;
48893;PMS5003;34710;35.798;139.446;2023-04-15T04:28:03;7;7;
48893;PMS5003;34710;35.798;139.446;2023-04-15T04:30:28;10;7;
48893;PMS5003;34710;35.798;139.446;2023-04-15T04:32:54;6;6;
48893;PMS5003;34710;35.798;139.446;2023-04-15T04:35:19;9;8;
48893;PMS5003;34710;35.798;139.446;2023-04-15T04:37:44;7;6;
48893;PMS5003;34710;35.798;139.446;2023-04-15T04:40:09;8;7;
48893;PMS5003;34710;35.798;139.446;2023-04-15T04:42:34;10;7;
48893;PMS5003;34710;35.798;139.446;2023-04-15T04:44:59;7;7;
48893;PMS5003;34710;35.798;139.446;2023-04-15T04:47:25;6;6;
48893;PMS5003;34710;35.798;139.446;2023-04-15T04:49:50;11;7;
48893;PMS5003;34710;35.798;139.446;2023-04-15T04:52:15;9;7;
48893;PMS5003;34710;35.798;139.446;2023-04-15T04:54:40;11;9;
48893;PMS5003;34710;35.798;139.446;2023-04-15T04:57:05;11;10;
48893;PMS5003;34710;35.798;139.446;2023-04-15T04:59:30;10;8;
48893;PMS5003;34710;35.798;139.446;2023-04-15T05:01:56;10;9;
48893;PMS5003;34710;35.798;139.446;2023-04-15T05:04:21;16;9;
48893;PMS5003;34710;35.798;139.446;2023-04-15T05:06:47;10;9;
48893;PMS5003;34710;35.798;139.446;2023-04-15T05:09:11;9;9;
48893;PMS5003;34710;35.798;139.446;2023-04-15T05:11:36;10;7;
48893;PMS5003;34710;35.798;139.446;2023-04-15T05:14:01;8;8;
48893;PMS5003;34710;35.798;139.446;2023-04-15T05:16:27;13;11;
48893;PMS5003;34710;35.798;139.446;2023-04-15T05:18:52;12;12;
48893;PMS5003;34710;35.798;139.446;2023-04-15T05:21:18;14;12;
48893;PMS5003;34710;35.798;139.446;2023-04-15T05:23:43;15;12;
48893;PMS5003;34710;35.798;139.446;2023-04-15T05:26:08;13;11;
48893;PMS5003;34710;35.798;139.446;2023-04-15T05:28:34;13;11;
48893;PMS5003;34710;35.798;139.446;2023-04-15T05:30:59;15;11;
48893;PMS5003;34710;35.798;139.446;2023-04-15T05:33:24;10;10;
48893;PMS5003;34710;35.798;139.446;2023-04-15T05:35:50;13;10;
48893;PMS5003;34710;35.798;139.446;2023-04-15T05:38:15;16;12;
48893;PMS5003;34710;35.798;139.446;2023-04-15T05:40:40;15;10;
48893;PMS5003;34710;35.798;139.446;2023-04-15T05:43:06;20;15;
48893;PMS5003;34710;35.798;139.446;2023-04-15T05:45:31;15;14;
48893;PMS5003;34710;35.798;139.446;2023-04-15T05:47:56;18;15;
48893;PMS5003;34710;35.798;139.446;2023-04-15T05:50:21;16;14;
48893;PMS5003;34710;35.798;139.446;2023-04-15T05:52:46;19;15;
48893;PMS5003;34710;35.798;139.446;2023-04-15T05:55:12;14;14;
48893;PMS5003;34710;35.798;139.446;2023-04-15T05:57:37;22;16;
48893;PMS5003;34710;35.798;139.446;2023-04-15T06:00:03;18;13;
48893;PMS5003;34710;35.798;139.446;2023-04-15T06:02:28;13;12;
48893;PMS5003;34710;35.798;139.446;2023-04-15T06:04:53;17;15;
48893;PMS5003;34710;35.798;139.446;2023-04-15T06:07:18;18;15;
48893;PMS5003;34710;35.798;139.446;2023-04-15T06:09:43;19;13;
48893;PMS5003;34710;35.798;139.446;2023-04-15T06:12:09;25;18;
48893;PMS5003;34710;35.798;139.446;2023-04-15T06:14:34;18;15;
48893;PMS5003;34710;35.798;139.446;2023-04-15T06:17:00;19;15;
48893;PMS5003;34710;35.798;139.446;2023-04-15T06:19:25;24;15;
48893;PMS5003;34710;35.798;139.446;2023-04-15T06:21:50;12;12;
48893;PMS5003;34710;35.798;139.446;2023-04-15T06:24:15;12;12;
48893;PMS5003;34710;35.798;139.446;2023-04-15T06:26:41;10;9;
48893;PMS5003;34710;35.798;139.446;2023-04-15T06:29:06;10;9;
48893;PMS5003;34710;35.798;139.446;2023-04-15T06:31:32;14;10;
48893;PMS5003;34710;35.798;139.446;2023-04-15T06:33:57;12;11;
48893;PMS5003;34710;35.798;139.446;2023-04-15T06:36:23;12;12;
48893;PMS5003;34710;35.798;139.446;2023-04-15T06:38:48;16;12;
48893;PMS5003;34710;35.798;139.446;2023-04-15T06:41:14;13;13;
48893;PMS5003;34710;35.798;139.446;2023-04-15T06:43:39;26;14;
48893;PMS5003;34710;35.798;139.446;2023-04-15T06:46:05;15;14;
48893;PMS5003;34710;35.798;139.446;2023-04-15T06:48:31;15;11;
48893;PMS5003;34710;35.798;139.446;2023-04-15T06:50:56;11;11;
48893;PMS5003;34710;35.798;139.446;2023-04-15T06:53:22;17;15;
48893;PMS5003;34710;35.798;139.446;2023-04-15T06:55:47;15;14;
48893;PMS5003;34710;35.798;139.446;2023-04-15T06:58:13;13;13;
48893;PMS5003;34710;35.798;139.446;2023-04-15T07:00:38;16;15;
48893;PMS5003;34710;35.798;139.446;2023-04-15T07:03:03;19;15;
48893;PMS5003;34710;35.798;139.446;2023-04-15T07:05:28;17;15;
48893;PMS5003;34710;35.798;139.446;2023-04-15T07:07:55;16;15;
48893;PMS5003;34710;35.798;139.446;2023-04-15T07:10:20;17;15;
48893;PMS5003;34710;35.798;139.446;2023-04-15T07:12:45;16;15;
48893;PMS5003;34710;35.798;139.446;2023-04-15T07:15:10;16;14;
48893;PMS5003;34710;35.798;139.446;2023-04-15T07:17:35;20;15;
48893;PMS5003;34710;35.798;139.446;2023-04-15T07:20:00;21;14;
48893;PMS5003;34710;35.798;139.446;2023-04-15T07:22:26;17;14;
48893;PMS5003;34710;35.798;139.446;2023-04-15T07:24:51;22;17;
48893;PMS5003;34710;35.798;139.446;2023-04-15T07:27:16;14;13;
48893;PMS5003;34710;35.798;139.446;2023-04-15T07:29:41;14;12;
48893;PMS5003;34710;35.798;139.446;2023-04-15T07:32:07;13;10;
48893;PMS5003;34710;35.798;139.446;2023-04-15T07:34:32;14;10;
48893;PMS5003;34710;35.798;139.446;2023-04-15T07:36:57;15;13;
48893;PMS5003;34710;35.798;139.446;2023-04-15T07:39:23;16;13;
48893;PMS5003;34710;35.798;139.446;2023-04-15T07:41:48;12;12;
48893;PMS5003;34710;35.798;139.446;2023-04-15T07:44:13;11;10;
48893;PMS5003;34710;35.798;139.446;2023-04-15T07:46:38;13;13;
48893;PMS5003;34710;35.798;139.446;2023-04-15T07:49:03;11;9;
48893;PMS5003;34710;35.798;139.446;2023-04-15T07:51:29;11;9;
48893;PMS5003;34710;35.798;139.446;2023-04-15T07:53:54;8;7;
48893;PMS5003;34710;35.798;139.446;2023-04-15T07:56:19;8;6;
48893;PMS5003;34710;35.798;139.446;2023-04-15T07:58:44;7;4;
48893;PMS5003;34710;35.798;139.446;2023-04-15T08:01:09;11;8;
48893;PMS5003;34710;35.798;139.446;2023-04-15T08:03:35;5;5;
48893;PMS5003;34710;35.798;139.446;2023-04-15T08:06:00;7;7;
48893;PMS5003;34710;35.798;139.446;2023-04-15T08:08:25;5;5;
48893;PMS5003;34710;35.798;139.446;2023-04-15T08:10:50;5;4;
48893;PMS5003;34710;35.798;139.446;2023-04-15T08:13:16;4;3;
48893;PMS5003;34710;35.798;139.446;2023-04-15T08:15:40;7;5;
48893;PMS5003;34710;35.798;139.446;2023-04-15T08:18:05;6;6;
48893;PMS5003;34710;35.798;139.446;2023-04-15T08:20:31;5;5;
48893;PMS5003;34710;35.798;139.446;2023-04-15T08:22:56;7;5;
48893;PMS5003;34710;35.798;139.446;2023-04-15T08:25:21;7;6;
48893;PMS5003;34710;35.798;139.446;2023-04-15T08:27:46;5;5;
48893;PMS5003;34710;35.798;139.446;2023-04-15T08:30:12;4;4;
48893;PMS5003;34710;35.798;139.446;2023-04-15T08:32:36;6;6;
48893;PMS5003;34710;35.798;139.446;2023-04-15T08:35:02;9;5;
48893;PMS5003;34710;35.798;139.446;2023-04-15T08:37:27;5;5;
48893;PMS5003;34710;35.798;139.446;2023-04-15T08:39:52;7;6;
48893;PMS5003;34710;35.798;139.446;2023-04-15T08:42:18;8;6;
48893;PMS5003;34710;35.798;139.446;2023-04-15T08:44:42;8;6;
48893;PMS5003;34710;35.798;139.446;2023-04-15T08:47:08;7;5;
48893;PMS5003;34710;35.798;139.446;2023-04-15T08:49:33;3;2;
48893;PMS5003;34710;35.798;139.446;2023-04-15T08:51:58;4;4;
48893;PMS5003;34710;35.798;139.446;2023-04-15T08:54:25;7;7;
48893;PMS5003;34710;35.798;139.446;2023-04-15T08:56:49;4;4;
48893;PMS5003;34710;35.798;139.446;2023-04-15T08:59:15;7;5;
48893;PMS5003;34710;35.798;139.446;2023-04-15T09:01:39;9;7;
48893;PMS5003;34710;35.798;139.446;2023-04-15T09:04:04;4;4;
48893;PMS5003;34710;35.798;139.446;2023-04-15T09:06:29;8;6;
48893;PMS5003;34710;35.798;139.446;2023-04-15T09:08:54;10;7;
48893;PMS5003;34710;35.798;139.446;2023-04-15T09:11:20;4;4;
48893;PMS5003;34710;35.798;139.446;2023-04-15T09:13:45;6;5;
48893;PMS5003;34710;35.798;139.446;2023-04-15T09:16:10;4;3;
48893;PMS5003;34710;35.798;139.446;2023-04-15T09:18:36;4;4;
48893;PMS5003;34710;35.798;139.446;2023-04-15T09:21:04;3;3;
48893;PMS5003;34710;35.798;139.446;2023-04-15T09:23:25;8;7;
48893;PMS5003;34710;35.798;139.446;2023-04-15T09:25:50;12;10;
48893;PMS5003;34710;35.798;139.446;2023-04-15T09:28:22;13;10;
48893;PMS5003;34710;35.798;139.446;2023-04-15T09:30:42;14;13;
48893;PMS5003;34710;35.798;139.446;2023-04-15T09:33:06;16;14;
48893;PMS5003;34710;35.798;139.446;2023-04-15T09:35:32;22;10;
48893;PMS5003;34710;35.798;139.446;2023-04-15T09:38:01;24;11;
48893;PMS5003;34710;35.798;139.446;2023-04-15T09:40:30;14;13;
48893;PMS5003;34710;35.798;139.446;2023-04-15T09:42:54;16;13;
48893;PMS5003;34710;35.798;139.446;2023-04-15T09:45:13;16;15;
48893;PMS5003;34710;35.798;139.446;2023-04-15T09:47:39;12;12;
48893;PMS5003;34710;35.798;139.446;2023-04-15T09:50:04;13;11;
48893;PMS5003;34710;35.798;139.446;2023-04-15T09:52:29;16;16;
48893;PMS5003;34710;35.798;139.446;2023-04-15T09:54:56;14;12;
48893;PMS5003;34710;35.798;139.446;2023-04-15T09:57:20;10;10;
48893;PMS5003;34710;35.798;139.446;2023-04-15T09:59:45;8;8;
48893;PMS5003;34710;35.798;139.446;2023-04-15T10:02:11;13;11;
48893;PMS5003;34710;35.798;139.446;2023-04-15T10:04:37;10;10;
48893;PMS5003;34710;35.798;139.446;2023-04-15T10:07:02;9;8;
48893;PMS5003;34710;35.798;139.446;2023-04-15T10:09:26;7;7;
48893;PMS5003;34710;35.798;139.446;2023-04-15T10:11:51;6;6;
48893;PMS5003;34710;35.798;139.446;2023-04-15T10:14:17;6;5;
48893;PMS5003;34710;35.798;139.446;2023-04-15T10:16:41;5;4;
48893;PMS5003;34710;35.798;139.446;2023-04-15T10:19:06;5;5;
48893;PMS5003;34710;35.798;139.446;2023-04-15T10:21:32;6;6;
48893;PMS5003;34710;35.798;139.446;2023-04-15T10:23:57;6;6;
48893;PMS5003;34710;35.798;139.446;2023-04-15T10:26:22;7;7;
48893;PMS5003;34710;35.798;139.446;2023-04-15T10:28:47;6;6;
48893;PMS5003;34710;35.798;139.446;2023-04-15T10:31:13;21;9;
48893;PMS5003;34710;35.798;139.446;2023-04-15T10:33:38;4;4;
48893;PMS5003;34710;35.798;139.446;2023-04-15T10:36:04;7;4;
48893;PMS5003;34710;35.798;139.446;2023-04-15T10:38:31;6;5;
48893;PMS5003;34710;35.798;139.446;2023-04-15T10:40:54;5;4;
48893;PMS5003;34710;35.798;139.446;2023-04-15T10:45:44;6;6;
48893;PMS5003;34710;35.798;139.446;2023-04-15T10:48:09;5;5;
48893;PMS5003;34710;35.798;139.446;2023-04-15T10:50:35;4;4;
48893;PMS5003;34710;35.798;139.446;2023-04-15T10:53:01;5;5;
48893;PMS5003;34710;35.798;139.446;2023-04-15T10:55:25;2;2;
48893;PMS5003;34710;35.798;139.446;2023-04-15T10:57:51;6;6;
48893;PMS5003;34710;35.798;139.446;2023-04-15T11:00:16;5;5;
48893;PMS5003;34710;35.798;139.446;2023-04-15T11:02:42;8;8;
48893;PMS5003;34710;35.798;139.446;2023-04-15T11:05:06;9;9;
48893;PMS5003;34710;35.798;139.446;2023-04-15T11:07:34;7;7;
48893;PMS5003;34710;35.798;139.446;2023-04-15T11:09:56;6;6;
48893;PMS5003;34710;35.798;139.446;2023-04-15T11:12:21;8;8;
48893;PMS5003;34710;35.798;139.446;2023-04-15T11:14:46;9;9;
48893;PMS5003;34710;35.798;139.446;2023-04-15T11:17:12;7;7;
48893;PMS5003;34710;35.798;139.446;2023-04-15T11:19:37;7;7;
48893;PMS5003;34710;35.798;139.446;2023-04-15T11:22:06;5;4;
48893;PMS5003;34710;35.798;139.446;2023-04-15T11:24:27;6;6;
48893;PMS5003;34710;35.798;139.446;2023-04-15T11:26:56;4;4;
48893;PMS5003;34710;35.798;139.446;2023-04-15T11:29:17;5;5;
48893;PMS5003;34710;35.798;139.446;2023-04-15T11:31:46;9;7;
48893;PMS5003;34710;35.798;139.446;2023-04-15T11:34:08;11;11;
48893;PMS5003;34710;35.798;139.446;2023-04-15T11:36:33;10;8;
48893;PMS5003;34710;35.798;139.446;2023-04-15T11:38:58;8;8;
48893;PMS5003;34710;35.798;139.446;2023-04-15T11:41:23;8;8;
48893;PMS5003;34710;35.798;139.446;2023-04-15T11:43:49;9;7;
48893;PMS5003;34710;35.798;139.446;2023-04-15T11:46:14;7;6;
48893;PMS5003;34710;35.798;139.446;2023-04-15T11:48:41;6;5;
48893;PMS5003;34710;35.798;139.446;2023-04-15T11:51:05;4;4;
48893;PMS5003;34710;35.798;139.446;2023-04-15T11:53:36;5;5;
48893;PMS5003;34710;35.798;139.446;2023-04-15T11:55:54;6;6;
48893;PMS5003;34710;35.798;139.446;2023-04-15T11:58:21;7;6;
48893;PMS5003;34710;35.798;139.446;2023-04-15T12:00:46;6;6;
48893;PMS5003;34710;35.798;139.446;2023-04-15T12:03:15;8;7;
48893;PMS5003;34710;35.798;139.446;2023-04-15T12:05:35;7;6;
48893;PMS5003;34710;35.798;139.446;2023-04-15T12:08:00;5;5;
48893;PMS5003;34710;35.798;139.446;2023-04-15T12:10:25;8;8;
48893;PMS5003;34710;35.798;139.446;2023-04-15T12:12:51;6;6;
48893;PMS5003;34710;35.798;139.446;2023-04-15T12:15:16;8;7;
48893;PMS5003;34710;35.798;139.446;2023-04-15T12:17:41;10;7;
48893;PMS5003;34710;35.798;139.446;2023-04-15T12:20:06;9;9;
48893;PMS5003;34710;35.798;139.446;2023-04-15T12:22:31;10;10;
48893;PMS5003;34710;35.798;139.446;2023-04-15T12:24:57;8;8;
48893;PMS5003;34710;35.798;139.446;2023-04-15T12:27:24;8;8;
48893;PMS5003;34710;35.798;139.446;2023-04-15T12:29:47;9;9;
48893;PMS5003;34710;35.798;139.446;2023-04-15T12:32:13;11;9;
48893;PMS5003;34710;35.798;139.446;2023-04-15T12:34:38;7;5;
48893;PMS5003;34710;35.798;139.446;2023-04-15T12:37:04;8;8;
48893;PMS5003;34710;35.798;139.446;2023-04-15T12:39:28;6;6;
48893;PMS5003;34710;35.798;139.446;2023-04-15T12:41:53;6;6;
48893;PMS5003;34710;35.798;139.446;2023-04-15T12:44:18;9;9;
48893;PMS5003;34710;35.798;139.446;2023-04-15T12:46:44;5;5;
48893;PMS5003;34710;35.798;139.446;2023-04-15T12:49:09;11;11;
48893;PMS5003;34710;35.798;139.446;2023-04-15T12:51:34;10;10;
48893;PMS5003;34710;35.798;139.446;2023-04-15T12:53:59;9;9;
48893;PMS5003;34710;35.798;139.446;2023-04-15T12:56:24;9;9;
48893;PMS5003;34710;35.798;139.446;2023-04-15T12:58:49;10;9;
48893;PMS5003;34710;35.798;139.446;2023-04-15T13:01:15;10;8;
48893;PMS5003;34710;35.798;139.446;2023-04-15T13:03:39;7;7;
48893;PMS5003;34710;35.798;139.446;2023-04-15T13:06:05;11;8;
48893;PMS5003;34710;35.798;139.446;2023-04-15T13:08:30;9;8;
48893;PMS5003;34710;35.798;139.446;2023-04-15T13:10:55;5;5;
48893;PMS5003;34710;35.798;139.446;2023-04-15T13:13:20;6;5;
48893;PMS5003;34710;35.798;139.446;2023-04-15T13:15:45;10;9;
48893;PMS5003;34710;35.798;139.446;2023-04-15T13:18:10;8;8;
48893;PMS5003;34710;35.798;139.446;2023-04-15T13:20:36;7;7;
48893;PMS5003;34710;35.798;139.446;2023-04-15T13:23:01;5;5;
48893;PMS5003;34710;35.798;139.446;2023-04-15T13:25:26;7;7;
48893;PMS5003;34710;35.798;139.446;2023-04-15T13:27:51;6;6;
48893;PMS5003;34710;35.798;139.446;2023-04-15T13:30:16;9;8;
48893;PMS5003;34710;35.798;139.446;2023-04-15T13:32:41;8;8;
48893;PMS5003;34710;35.798;139.446;2023-04-15T13:35:07;9;6;
48893;PMS5003;34710;35.798;139.446;2023-04-15T13:37:32;8;6;
48893;PMS5003;34710;35.798;139.446;2023-04-15T13:39:57;10;7;
48893;PMS5003;34710;35.798;139.446;2023-04-15T13:42:23;9;7;
48893;PMS5003;34710;35.798;139.446;2023-04-15T13:44:48;12;11;
48893;PMS5003;34710;35.798;139.446;2023-04-15T13:47:13;12;10;
48893;PMS5003;34710;35.798;139.446;2023-04-15T13:49:38;11;9;
48893;PMS5003;34710;35.798;139.446;2023-04-15T13:52:03;11;9;
48893;PMS5003;34710;35.798;139.446;2023-04-15T13:54:29;13;11;
48893;PMS5003;34710;35.798;139.446;2023-04-15T13:56:54;15;10;
48893;PMS5003;34710;35.798;139.446;2023-04-15T13:59:20;10;8;
48893;PMS5003;34710;35.798;139.446;2023-04-15T14:01:45;9;8;
48893;PMS5003;34710;35.798;139.446;2023-04-15T14:04:10;15;11;
48893;PMS5003;34710;35.798;139.446;2023-04-15T14:06:36;11;9;
48893;PMS5003;34710;35.798;139.446;2023-04-15T14:09:01;14;11;
48893;PMS5003;34710;35.798;139.446;2023-04-15T14:11:27;18;12;
48893;PMS5003;34710;35.798;139.446;2023-04-15T14:13:52;14;11;
48893;PMS5003;34710;35.798;139.446;2023-04-15T14:16:17;11;8;
48893;PMS5003;34710;35.798;139.446;2023-04-15T14:18:43;9;9;
48893;PMS5003;34710;35.798;139.446;2023-04-15T14:21:08;12;9;
48893;PMS5003;34710;35.798;139.446;2023-04-15T14:23:33;14;8;
48893;PMS5003;34710;35.798;139.446;2023-04-15T14:25:59;12;8;
48893;PMS5003;34710;35.798;139.446;2023-04-15T14:28:24;17;7;
48893;PMS5003;34710;35.798;139.446;2023-04-15T14:30:49;14;10;
48893;PMS5003;34710;35.798;139.446;2023-04-15T14:33:14;11;8;
48893;PMS5003;34710;35.798;139.446;2023-04-15T14:35:40;13;7;
48893;PMS5003;34710;35.798;139.446;2023-04-15T14:38:05;8;6;
48893;PMS5003;34710;35.798;139.446;2023-04-15T14:40:30;9;6;
48893;PMS5003;34710;35.798;139.446;2023-04-15T14:42:55;9;6;
48893;PMS5003;34710;35.798;139.446;2023-04-15T14:45:20;8;6;
48893;PMS5003;34710;35.798;139.446;2023-04-15T14:47:46;7;5;
48893;PMS5003;34710;35.798;139.446;2023-04-15T14:50:11;7;6;
48893;PMS5003;34710;35.798;139.446;2023-04-15T14:52:36;8;6;
48893;PMS5003;34710;35.798;139.446;2023-04-15T14:55:01;6;5;
48893;PMS5003;34710;35.798;139.446;2023-04-15T14:57:26;7;5;
48893;PMS5003;34710;35.798;139.446;2023-04-15T14:59:51;6;5;
48893;PMS5003;34710;35.798;139.446;2023-04-15T15:02:16;8;7;
48893;PMS5003;34710;35.798;139.446;2023-04-15T15:04:41;10;6;
48893;PMS5003;34710;35.798;139.446;2023-04-15T15:07:07;9;4;
48893;PMS5003;34710;35.798;139.446;2023-04-15T15:09:32;5;5;
48893;PMS5003;34710;35.798;139.446;2023-04-15T15:11:57;9;6;
48893;PMS5003;34710;35.798;139.446;2023-04-15T15:14:22;11;7;
48893;PMS5003;34710;35.798;139.446;2023-04-15T15:16:47;11;8;
48893;PMS5003;34710;35.798;139.446;2023-04-15T15:19:12;9;7;
48893;PMS5003;34710;35.798;139.446;2023-04-15T15:21:38;11;9;
48893;PMS5003;34710;35.798;139.446;2023-04-15T15:24:03;8;8;
48893;PMS5003;34710;35.798;139.446;2023-04-15T15:26:29;12;10;
48893;PMS5003;34710;35.798;139.446;2023-04-15T15:28:54;11;9;
48893;PMS5003;34710;35.798;139.446;2023-04-15T15:31:18;10;9;
48893;PMS5003;34710;35.798;139.446;2023-04-15T15:33:44;14;10;
48893;PMS5003;34710;35.798;139.446;2023-04-15T15:36:09;14;11;
48893;PMS5003;34710;35.798;139.446;2023-04-15T15:38:34;9;8;
48893;PMS5003;34710;35.798;139.446;2023-04-15T15:40:59;9;6;
48893;PMS5003;34710;35.798;139.446;2023-04-15T15:43:25;10;8;
48893;PMS5003;34710;35.798;139.446;2023-04-15T15:45:50;12;10;
48893;PMS5003;34710;35.798;139.446;2023-04-15T15:48:15;10;9;
48893;PMS5003;34710;35.798;139.446;2023-04-15T15:50:40;8;8;
48893;PMS5003;34710;35.798;139.446;2023-04-15T15:53:06;9;5;